createdAt,value
2022-12-01T00:00:27.926Z,81.37
2022-12-01T00:01:28.122Z,84.59
2022-12-01T00:02:28.433Z,62.04
2022-12-01T00:03:29.545Z,82.02
2022-12-01T00:04:29.508Z,68.80
2022-12-01T00:05:28.893Z,78.63
2022-12-01T00:06:29.052Z,63.49
2022-12-01T00:07:29.315Z,80.41
2022-12-01T00:08:29.338Z,80.89
2022-12-01T00:09:29.516Z,77.99
2022-12-01T00:10:29.699Z,64.94
2022-12-01T00:11:30.494Z,77.02
2022-12-01T00:12:30.503Z,78.15
2022-12-01T00:13:31.179Z,66.23
2022-12-01T00:14:30.303Z,83.79
2022-12-01T00:15:30.457Z,63.00
2022-12-01T00:16:31.545Z,75.89
2022-12-01T00:17:31.010Z,82.66
2022-12-01T00:18:31.012Z,77.67
2022-12-01T00:19:31.188Z,74.77
2022-12-01T00:20:31.345Z,75.57
2022-12-01T00:21:31.497Z,68.96
2022-12-01T00:22:31.698Z,61.71
2022-12-01T00:23:31.891Z,77.99
2022-12-01T00:24:32.097Z,75.25
2022-12-01T00:25:33.001Z,68.96
2022-12-01T00:26:32.397Z,74.93
2022-12-01T00:27:32.587Z,66.06
2022-12-01T00:28:32.798Z,63.00
2022-12-01T00:29:32.998Z,82.50
2022-12-01T00:30:33.512Z,84.59
2022-12-01T00:31:33.310Z,62.52
2022-12-01T00:32:34.003Z,64.13
2022-12-01T00:33:34.510Z,75.57
2022-12-01T00:34:33.888Z,63.00
2022-12-01T00:35:34.046Z,80.41
2022-12-01T00:36:34.258Z,63.97
2022-12-01T00:37:35.013Z,74.44
2022-12-01T00:38:34.531Z,64.45
2022-12-01T00:39:34.727Z,63.97
2022-12-01T00:40:34.893Z,84.27
2022-12-01T00:41:35.132Z,80.73
2022-12-01T00:42:35.288Z,80.08
2022-12-01T00:43:35.511Z,69.93
2022-12-01T00:44:35.679Z,65.42
2022-12-01T00:45:35.935Z,61.39
2022-12-01T00:46:36.025Z,64.61
2022-12-01T00:47:37.001Z,65.58
2022-12-01T00:48:36.390Z,66.23
2022-12-01T00:49:36.566Z,64.94
2022-12-01T00:50:36.737Z,79.28
2022-12-01T00:51:37.023Z,66.39
2022-12-01T00:52:38.012Z,64.13
2022-12-01T00:53:37.288Z,63.16
2022-12-01T00:54:37.455Z,61.71
2022-12-01T00:55:37.634Z,62.04
2022-12-01T00:56:38.505Z,62.68
2022-12-01T00:57:38.066Z,73.96
2022-12-01T00:58:38.250Z,62.04
2022-12-01T00:59:38.422Z,67.35
2022-12-01T01:00:38.642Z,66.55
2022-12-01T01:01:39.585Z,63.97
2022-12-01T01:02:39.607Z,67.35
2022-12-01T01:03:39.197Z,68.32
2022-12-01T01:04:39.370Z,90.72
2022-12-01T01:05:39.562Z,71.54
2022-12-01T01:06:39.745Z,87.33
2022-12-01T01:07:39.914Z,81.37
2022-12-01T01:08:40.015Z,61.71
2022-12-01T01:09:40.195Z,66.55
2022-12-01T01:10:40.523Z,72.83
2022-12-01T01:11:40.596Z,61.71
2022-12-01T01:12:40.783Z,64.29
2022-12-01T01:13:40.944Z,59.14
2022-12-01T01:14:42.017Z,61.39
2022-12-01T01:15:41.524Z,68.16
2022-12-01T01:16:41.491Z,73.32
2022-12-01T01:17:41.570Z,59.78
2022-12-01T01:18:41.736Z,69.45
2022-12-01T01:19:42.511Z,65.42
2022-12-01T01:20:42.084Z,61.07
2022-12-01T01:21:42.520Z,59.14
2022-12-01T01:22:42.426Z,60.10
2022-12-01T01:23:42.595Z,64.13
2022-12-01T01:24:42.768Z,64.61
2022-12-01T01:25:42.939Z,59.46
2022-12-01T01:26:44.008Z,65.10
2022-12-01T01:27:43.266Z,63.16
2022-12-01T01:28:43.425Z,63.81
2022-12-01T01:29:44.513Z,69.13
2022-12-01T01:30:43.856Z,75.41
2022-12-01T01:31:44.035Z,61.23
2022-12-01T01:32:45.013Z,58.97
2022-12-01T01:33:44.267Z,59.78
2022-12-01T01:34:44.466Z,59.94
2022-12-01T01:35:45.512Z,80.24
2022-12-01T01:36:45.045Z,76.70
2022-12-01T01:37:44.956Z,62.52
2022-12-01T01:38:45.129Z,73.64
2022-12-01T01:39:45.284Z,60.59
2022-12-01T01:40:45.452Z,60.10
2022-12-01T01:41:46.520Z,59.94
2022-12-01T01:42:45.767Z,63.81
2022-12-01T01:43:46.519Z,64.13
2022-12-01T01:44:46.519Z,76.38
2022-12-01T01:45:47.356Z,60.42
2022-12-01T01:46:46.497Z,59.62
2022-12-01T01:47:46.675Z,58.33
2022-12-01T01:48:46.839Z,66.87
2022-12-01T01:49:47.308Z,70.42
2022-12-01T01:50:47.231Z,64.13
2022-12-01T01:51:47.385Z,58.97
2022-12-01T01:52:47.554Z,61.71
2022-12-01T01:53:47.702Z,63.00
2022-12-01T01:54:47.860Z,65.74
2022-12-01T01:55:48.006Z,58.81
2022-12-01T01:56:48.180Z,61.07
2022-12-01T01:57:48.323Z,59.62
2022-12-01T01:58:48.486Z,66.87
2022-12-01T01:59:49.659Z,72.83
2022-12-01T02:00:48.806Z,59.94
2022-12-01T02:01:49.049Z,62.20
2022-12-01T02:02:49.182Z,62.04
2022-12-01T02:03:50.022Z,60.42
2022-12-01T02:04:50.373Z,78.47
2022-12-01T02:05:49.592Z,62.20
2022-12-01T02:06:49.756Z,58.49
2022-12-01T02:07:49.933Z,58.81
2022-12-01T02:08:50.096Z,79.92
2022-12-01T02:09:51.282Z,83.31
2022-12-01T02:10:50.363Z,76.70
2022-12-01T02:11:50.601Z,58.65
2022-12-01T02:12:50.751Z,62.04
2022-12-01T02:13:50.894Z,77.34
2022-12-01T02:14:51.018Z,59.94
2022-12-01T02:15:51.256Z,58.97
2022-12-01T02:16:51.578Z,59.30
2022-12-01T02:17:51.714Z,57.20
2022-12-01T02:18:51.982Z,66.23
2022-12-01T02:19:52.082Z,64.13
2022-12-01T02:20:53.020Z,63.00
2022-12-01T02:21:53.026Z,79.60
2022-12-01T02:22:54.073Z,76.38
2022-12-01T02:23:53.680Z,81.05
2022-12-01T02:24:52.859Z,63.16
2022-12-01T02:25:53.095Z,62.84
2022-12-01T02:26:53.303Z,63.97
2022-12-01T02:27:54.023Z,61.87
2022-12-01T02:28:53.627Z,66.06
2022-12-01T02:29:53.861Z,72.51
2022-12-01T02:30:54.195Z,80.08
2022-12-01T02:31:54.354Z,61.39
2022-12-01T02:32:54.462Z,59.46
2022-12-01T02:33:54.704Z,59.94
2022-12-01T02:34:54.943Z,79.44
2022-12-01T02:35:55.179Z,77.99
2022-12-01T02:36:55.355Z,59.94
2022-12-01T02:37:55.480Z,70.58
2022-12-01T02:38:55.610Z,57.36
2022-12-01T02:39:55.741Z,57.69
2022-12-01T02:40:55.900Z,58.17
2022-12-01T02:41:56.525Z,76.38
2022-12-01T02:42:56.257Z,76.22
2022-12-01T02:43:56.372Z,60.75
2022-12-01T02:44:56.520Z,59.14
2022-12-01T02:45:56.714Z,61.23
2022-12-01T02:46:56.868Z,63.00
2022-12-01T02:47:57.147Z,78.63
2022-12-01T02:48:57.316Z,59.46
2022-12-01T02:49:57.469Z,61.55
2022-12-01T02:50:57.704Z,73.48
2022-12-01T02:51:57.837Z,61.55
2022-12-01T02:52:57.973Z,60.10
2022-12-01T02:53:58.158Z,77.67
2022-12-01T02:54:58.543Z,60.26
2022-12-01T02:55:59.028Z,61.23
2022-12-01T02:56:58.662Z,71.87
2022-12-01T02:57:58.840Z,65.58
2022-12-01T02:58:58.983Z,66.71
2022-12-01T02:59:59.548Z,75.41
2022-12-01T03:00:59.335Z,61.39
2022-12-01T03:02:00.033Z,57.52
2022-12-01T03:02:59.727Z,60.42
2022-12-01T03:03:59.788Z,66.55
2022-12-01T03:04:59.956Z,81.05
2022-12-01T03:06:01.029Z,59.46
2022-12-01T03:07:00.257Z,60.42
2022-12-01T03:08:01.463Z,67.68
2022-12-01T03:09:00.610Z,81.86
2022-12-01T03:10:00.759Z,72.67
2022-12-01T03:11:01.536Z,78.96
2022-12-01T03:12:01.045Z,65.26
2022-12-01T03:13:01.182Z,82.50
2022-12-01T03:14:01.338Z,80.57
2022-12-01T03:15:01.499Z,60.75
2022-12-01T03:16:01.715Z,60.10
2022-12-01T03:17:02.536Z,82.18
2022-12-01T03:18:02.006Z,60.10
2022-12-01T03:19:02.267Z,58.49
2022-12-01T03:20:03.033Z,69.77
2022-12-01T03:21:02.635Z,56.40
2022-12-01T03:22:02.787Z,72.19
2022-12-01T03:23:02.998Z,75.73
2022-12-01T03:24:03.120Z,76.38
2022-12-01T03:25:04.036Z,77.34
2022-12-01T03:26:03.523Z,79.12
2022-12-01T03:27:03.659Z,78.79
2022-12-01T03:28:23.247Z,80.57
2022-12-01T03:29:06.128Z,58.49
2022-12-01T03:30:04.326Z,78.63
2022-12-01T03:31:04.587Z,61.23
2022-12-01T03:32:04.740Z,81.69
2022-12-01T03:33:05.007Z,65.74
2022-12-01T03:34:05.220Z,73.64
2022-12-01T03:35:05.342Z,61.39
2022-12-01T03:36:05.474Z,77.50
2022-12-01T03:37:05.622Z,75.41
2022-12-01T03:38:05.790Z,79.60
2022-12-01T03:39:06.538Z,83.95
2022-12-01T03:40:06.157Z,75.89
2022-12-01T03:41:07.062Z,75.73
2022-12-01T03:42:06.460Z,76.22
2022-12-01T03:43:06.607Z,75.25
2022-12-01T03:44:07.531Z,79.76
2022-12-01T03:45:07.897Z,77.34
2022-12-01T03:46:07.616Z,71.87
2022-12-01T03:47:08.038Z,77.34
2022-12-01T03:48:08.047Z,78.47
2022-12-01T03:49:07.436Z,81.69
2022-12-01T03:50:07.591Z,81.69
2022-12-01T03:51:08.731Z,79.12
2022-12-01T03:52:07.970Z,78.31
2022-12-01T03:53:08.129Z,79.76
2022-12-01T03:54:08.291Z,79.28
2022-12-01T03:55:08.489Z,78.96
2022-12-01T03:56:09.543Z,78.96
2022-12-01T03:57:08.802Z,80.08
2022-12-01T03:58:08.976Z,81.53
2022-12-01T03:59:09.123Z,60.75
2022-12-01T04:00:09.301Z,84.43
2022-12-01T04:01:09.457Z,75.73
2022-12-01T04:02:09.643Z,78.63
2022-12-01T04:03:10.596Z,88.46
2022-12-01T04:04:10.542Z,61.23
2022-12-01T04:05:10.176Z,82.34
2022-12-01T04:06:10.339Z,77.02
2022-12-01T04:07:10.508Z,81.37
2022-12-01T04:08:10.685Z,83.79
2022-12-01T04:09:10.857Z,83.14
2022-12-01T04:10:10.986Z,79.28
2022-12-01T04:11:11.124Z,80.41
2022-12-01T04:12:11.235Z,83.31
2022-12-01T04:13:11.360Z,83.14
2022-12-01T04:14:12.066Z,87.17
2022-12-01T04:15:12.547Z,79.44
2022-12-01T04:16:11.986Z,84.92
2022-12-01T04:17:13.043Z,79.44
2022-12-01T04:18:12.384Z,81.69
2022-12-01T04:19:12.613Z,78.96
2022-12-01T04:20:13.588Z,83.79
2022-12-01T04:21:12.962Z,83.14
2022-12-01T04:22:13.092Z,80.57
2022-12-01T04:23:13.255Z,80.89
2022-12-01T04:24:13.400Z,79.12
2022-12-01T04:25:14.051Z,78.63
2022-12-01T04:26:15.864Z,82.98
2022-12-01T04:27:15.063Z,78.79
2022-12-01T04:28:14.059Z,81.53
2022-12-01T04:29:15.050Z,82.34
2022-12-01T04:30:14.436Z,83.47
2022-12-01T04:31:14.614Z,81.69
2022-12-01T04:32:15.573Z,81.37
2022-12-01T04:33:15.550Z,82.66
2022-12-01T04:34:15.180Z,82.18
2022-12-01T04:35:16.048Z,83.79
2022-12-01T04:36:15.546Z,83.63
2022-12-01T04:37:16.575Z,82.02
2022-12-01T04:38:15.940Z,81.86
2022-12-01T04:39:16.114Z,82.82
2022-12-01T04:40:16.277Z,83.14
2022-12-01T04:41:16.431Z,81.05
2022-12-01T04:42:16.580Z,80.73
2022-12-01T04:43:16.757Z,82.50
2022-12-01T04:44:16.920Z,80.89
2022-12-01T04:45:18.049Z,82.34
2022-12-01T04:46:17.357Z,82.34
2022-12-01T04:47:17.535Z,79.28
2022-12-01T04:48:17.714Z,81.37
2022-12-01T04:49:18.559Z,83.14
2022-12-01T04:50:18.097Z,79.28
2022-12-01T04:51:18.241Z,83.31
2022-12-01T04:52:19.053Z,80.41
2022-12-01T04:53:19.555Z,81.05
2022-12-01T04:54:18.696Z,82.82
2022-12-01T04:55:19.063Z,85.88
2022-12-01T04:56:19.090Z,81.69
2022-12-01T04:57:19.289Z,80.73
2022-12-01T04:58:19.439Z,86.04
2022-12-01T04:59:20.601Z,87.01
2022-12-01T05:00:20.577Z,82.02
2022-12-01T05:01:20.034Z,82.50
2022-12-01T05:02:20.684Z,81.05
2022-12-01T05:03:21.060Z,78.79
2022-12-01T05:04:20.448Z,82.18
2022-12-01T05:05:21.551Z,82.82
2022-12-01T05:06:20.815Z,81.69
2022-12-01T05:07:21.000Z,82.18
2022-12-01T05:08:21.155Z,96.84
2022-12-01T05:09:21.328Z,82.02
2022-12-01T05:10:21.488Z,82.18
2022-12-01T05:11:22.562Z,81.53
2022-12-01T05:12:21.835Z,80.08
2022-12-01T05:13:22.005Z,82.82
2022-12-01T05:14:22.153Z,81.05
2022-12-01T05:15:22.311Z,85.72
2022-12-01T05:16:23.080Z,80.73
2022-12-01T05:17:22.570Z,81.53
2022-12-01T05:18:22.741Z,90.07
2022-12-01T05:19:22.917Z,80.24
2022-12-01T05:20:23.093Z,82.50
2022-12-01T05:21:23.246Z,88.78
2022-12-01T05:22:49.395Z,82.50
2022-12-01T05:23:25.621Z,82.34
2022-12-01T05:24:24.071Z,83.79
2022-12-01T05:25:23.959Z,81.37
2022-12-01T05:26:25.061Z,79.12
2022-12-01T05:27:24.291Z,83.47
2022-12-01T05:28:24.428Z,81.05
2022-12-01T05:29:24.712Z,79.92
2022-12-01T05:30:28.491Z,81.53
2022-12-01T05:31:26.603Z,82.98
2022-12-01T05:32:26.068Z,79.60
2022-12-01T05:33:25.432Z,81.86
2022-12-01T05:34:25.597Z,86.37
2022-12-01T05:35:25.729Z,84.76
2022-12-01T05:36:25.864Z,82.34
2022-12-01T05:37:26.010Z,81.37
2022-12-01T05:38:26.190Z,81.53
2022-12-01T05:39:26.354Z,81.21
2022-12-01T05:40:26.476Z,80.73
2022-12-01T05:41:26.628Z,82.82
2022-12-01T05:42:26.770Z,83.95
2022-12-01T05:43:29.383Z,83.63
2022-12-01T05:44:29.061Z,81.37
2022-12-01T05:45:27.355Z,82.98
2022-12-01T05:46:27.577Z,82.82
2022-12-01T05:47:27.764Z,79.92
2022-12-01T05:48:27.912Z,81.21
2022-12-01T05:49:28.040Z,84.27
2022-12-01T05:50:28.172Z,82.18
2022-12-01T05:51:29.582Z,85.72
2022-12-01T05:52:28.455Z,82.82
2022-12-01T05:53:28.648Z,82.18
2022-12-01T05:54:29.563Z,82.34
2022-12-01T05:55:29.566Z,84.43
2022-12-01T05:56:29.215Z,80.41
2022-12-01T05:57:29.578Z,82.18
2022-12-01T05:58:30.075Z,84.76
2022-12-01T05:59:29.718Z,81.05
2022-12-01T06:00:29.899Z,84.76
2022-12-01T06:01:30.551Z,82.50
2022-12-01T06:02:31.580Z,78.79
2022-12-01T06:03:30.327Z,85.72
2022-12-01T06:04:30.534Z,82.98
2022-12-01T06:05:30.704Z,81.69
2022-12-01T06:06:30.864Z,80.41
2022-12-01T06:07:31.079Z,82.02
2022-12-01T06:08:31.265Z,82.50
2022-12-01T06:09:31.453Z,83.95
2022-12-01T06:10:31.613Z,80.57
2022-12-01T06:11:32.567Z,81.86
2022-12-01T06:12:31.975Z,81.53
2022-12-01T06:13:32.156Z,81.37
2022-12-01T06:14:33.336Z,79.44
2022-12-01T06:15:32.518Z,80.89
2022-12-01T06:16:32.729Z,82.98
2022-12-01T06:17:37.089Z,81.05
2022-12-01T06:18:35.079Z,82.34
2022-12-01T06:19:33.150Z,82.66
2022-12-01T06:20:33.316Z,81.37
2022-12-01T06:21:33.591Z,80.08
2022-12-01T06:22:33.645Z,80.08
2022-12-01T06:23:33.809Z,80.89
2022-12-01T06:24:34.577Z,83.14
2022-12-01T06:25:34.137Z,80.41
2022-12-01T06:26:35.073Z,82.50
2022-12-01T06:27:34.457Z,80.24
2022-12-01T06:28:34.611Z,81.37
2022-12-01T06:29:39.058Z,81.05
2022-12-01T06:30:36.933Z,79.92
2022-12-01T06:31:35.081Z,80.57
2022-12-01T06:32:36.071Z,87.17
2022-12-01T06:33:35.452Z,83.95
2022-12-01T06:34:36.118Z,82.34
2022-12-01T06:35:36.781Z,81.21
2022-12-01T06:36:35.902Z,82.82
2022-12-01T06:37:36.056Z,80.57
2022-12-01T06:38:37.077Z,79.76
2022-12-01T06:39:36.455Z,79.92
2022-12-01T06:40:37.584Z,80.57
2022-12-01T06:41:36.729Z,79.44
2022-12-01T06:42:36.928Z,83.79
2022-12-01T06:43:37.091Z,81.21
2022-12-01T06:44:37.254Z,81.21
2022-12-01T06:45:37.458Z,80.24
2022-12-01T06:46:38.610Z,80.41
2022-12-01T06:47:39.089Z,80.41
2022-12-01T06:48:37.948Z,87.17
2022-12-01T06:49:38.127Z,82.34
2022-12-01T06:50:38.302Z,77.50
2022-12-01T06:51:39.079Z,82.34
2022-12-01T06:52:39.612Z,83.95
2022-12-01T06:53:38.736Z,83.14
2022-12-01T06:54:38.917Z,80.73
2022-12-01T06:55:40.080Z,79.28
2022-12-01T06:56:40.081Z,87.50
2022-12-01T06:57:40.080Z,81.86
2022-12-01T06:58:39.583Z,79.28
2022-12-01T06:59:39.731Z,82.18
2022-12-01T07:00:39.913Z,81.86
2022-12-01T07:01:40.665Z,83.47
2022-12-01T07:02:40.254Z,82.98
2022-12-01T07:03:40.344Z,80.57
2022-12-01T07:04:40.485Z,81.69
2022-12-01T07:05:41.092Z,84.43
2022-12-01T07:06:40.858Z,82.82
2022-12-01T07:07:41.074Z,84.92
2022-12-01T07:08:42.082Z,81.86
2022-12-01T07:09:41.292Z,82.66
2022-12-01T07:10:41.598Z,82.98
2022-12-01T07:11:41.753Z,82.98
2022-12-01T07:12:42.582Z,83.14
2022-12-01T07:13:42.113Z,83.63
2022-12-01T07:14:42.256Z,77.34
2022-12-01T07:15:43.280Z,82.66
2022-12-01T07:16:42.680Z,83.47
2022-12-01T07:17:43.093Z,81.86
2022-12-01T07:18:42.963Z,83.31
2022-12-01T07:19:43.102Z,80.89
2022-12-01T07:20:43.259Z,82.02
2022-12-01T07:21:44.116Z,81.05
2022-12-01T07:22:44.095Z,82.34
2022-12-01T07:23:43.705Z,82.18
2022-12-01T07:24:43.838Z,82.02
2022-12-01T07:25:43.967Z,80.89
2022-12-01T07:26:45.082Z,80.57
2022-12-01T07:27:44.598Z,81.05
2022-12-01T07:28:44.512Z,79.60
2022-12-01T07:29:44.650Z,82.02
2022-12-01T07:30:44.875Z,82.18
2022-12-01T07:31:45.585Z,79.60
2022-12-01T07:32:46.085Z,83.14
2022-12-01T07:33:45.471Z,82.50
2022-12-01T07:34:45.690Z,79.60
2022-12-01T07:35:45.870Z,80.89
2022-12-01T07:36:46.071Z,79.76
2022-12-01T07:37:46.283Z,81.05
2022-12-01T07:38:46.593Z,80.89
2022-12-01T07:39:46.946Z,78.15
2022-12-01T07:40:47.589Z,80.89
2022-12-01T07:41:46.983Z,84.76
2022-12-01T07:42:47.120Z,81.86
2022-12-01T07:43:47.259Z,80.73
2022-12-01T07:44:48.107Z,86.69
2022-12-01T07:45:47.697Z,81.05
2022-12-01T07:46:47.760Z,88.46
2022-12-01T07:47:47.957Z,83.14
2022-12-01T07:48:48.125Z,84.59
2022-12-01T07:49:48.625Z,84.27
2022-12-01T07:50:49.086Z,81.69
2022-12-01T07:51:48.708Z,81.05
2022-12-01T07:52:48.877Z,82.02
2022-12-01T07:53:49.005Z,83.14
2022-12-01T07:54:49.136Z,84.59
2022-12-01T07:55:49.286Z,85.56
2022-12-01T07:56:50.087Z,82.02
2022-12-01T07:57:50.100Z,82.82
2022-12-01T07:58:50.108Z,81.37
2022-12-01T07:59:50.886Z,80.89
2022-12-01T08:00:50.055Z,83.79
2022-12-01T08:01:50.261Z,83.14
2022-12-01T08:02:50.520Z,87.01
2022-12-01T08:03:51.101Z,93.94
2022-12-01T08:04:50.842Z,81.05
2022-12-01T08:05:51.593Z,94.91
2022-12-01T08:06:51.252Z,80.89
2022-12-01T08:07:51.425Z,80.89
2022-12-01T08:08:51.644Z,90.72
2022-12-01T08:09:51.988Z,84.27
2022-12-01T08:10:52.593Z,95.23
2022-12-01T08:11:52.217Z,85.40
2022-12-01T08:12:53.103Z,81.05
2022-12-01T08:13:52.493Z,84.76
2022-12-01T08:14:52.656Z,82.98
2022-12-01T08:15:53.624Z,83.79
2022-12-01T08:16:53.044Z,82.50
2022-12-01T08:17:53.198Z,84.76
2022-12-01T08:18:53.358Z,81.86
2022-12-01T08:19:53.604Z,85.72
2022-12-01T08:20:53.634Z,84.92
2022-12-01T08:21:53.788Z,85.08
2022-12-01T08:22:53.956Z,80.08
2022-12-01T08:23:54.131Z,113.44
2022-12-01T08:24:54.632Z,100.39
2022-12-01T08:25:54.526Z,82.18
2022-12-01T08:26:55.600Z,84.59
2022-12-01T08:27:55.599Z,81.37
2022-12-01T08:28:55.000Z,79.60
2022-12-01T08:29:55.182Z,84.59
2022-12-01T08:30:56.156Z,83.63
2022-12-01T08:31:55.604Z,86.69
2022-12-01T08:32:55.786Z,82.02
2022-12-01T08:33:55.936Z,82.34
2022-12-01T08:34:56.122Z,83.63
2022-12-01T08:35:56.285Z,79.44
2022-12-01T08:36:57.094Z,83.14
2022-12-01T08:37:56.611Z,85.56
2022-12-01T08:38:56.788Z,84.11
2022-12-01T08:39:56.943Z,86.37
2022-12-01T08:40:57.078Z,85.56
2022-12-01T08:41:58.105Z,83.31
2022-12-01T08:42:58.102Z,81.69
2022-12-01T08:43:59.246Z,80.73
2022-12-01T08:44:58.875Z,83.47
2022-12-01T08:45:58.629Z,83.95
2022-12-01T08:46:58.134Z,82.02
2022-12-01T08:47:59.105Z,84.59
2022-12-01T08:48:58.490Z,81.53
2022-12-01T08:49:58.547Z,81.21
2022-12-01T08:50:59.611Z,82.66
2022-12-01T08:51:59.108Z,82.98
2022-12-01T08:52:58.997Z,80.41
2022-12-01T08:54:00.096Z,82.02
2022-12-01T08:54:59.240Z,81.21
2022-12-01T08:55:59.430Z,81.37
2022-12-01T08:57:00.095Z,83.14
2022-12-01T08:57:59.739Z,83.95
2022-12-01T08:58:59.915Z,82.34
2022-12-01T09:00:00.071Z,81.69
2022-12-01T09:01:00.613Z,83.14
2022-12-01T09:02:05.333Z,83.79
2022-12-01T09:03:03.132Z,81.21
2022-12-01T09:04:00.607Z,82.66
2022-12-01T09:05:01.605Z,84.27
2022-12-01T09:06:00.985Z,82.98
2022-12-01T09:07:01.625Z,86.53
2022-12-01T09:08:01.298Z,84.27
2022-12-01T09:09:01.453Z,81.86
2022-12-01T09:10:01.588Z,86.37
2022-12-01T09:11:01.727Z,81.86
2022-12-01T09:12:02.115Z,83.63
2022-12-01T09:13:02.018Z,83.31
2022-12-01T09:14:02.170Z,80.24
2022-12-01T09:15:02.330Z,82.98
2022-12-01T09:16:02.512Z,81.37
2022-12-01T09:17:03.652Z,82.02
2022-12-01T09:18:02.907Z,86.21
2022-12-01T09:19:03.084Z,84.27
2022-12-01T09:20:04.106Z,83.63
2022-12-01T09:21:03.457Z,79.92
2022-12-01T09:22:03.643Z,81.05
2022-12-01T09:23:03.777Z,83.79
2022-12-01T09:24:03.922Z,81.37
2022-12-01T09:25:04.123Z,81.21
2022-12-01T09:26:04.283Z,82.18
2022-12-01T09:27:04.435Z,82.98
2022-12-01T09:28:05.115Z,81.21
2022-12-01T09:29:05.607Z,80.41
2022-12-01T09:30:05.116Z,82.34
2022-12-01T09:31:06.160Z,81.53
2022-12-01T09:32:05.333Z,82.34
2022-12-01T09:33:06.111Z,83.63
2022-12-01T09:34:06.108Z,82.02
2022-12-01T09:35:05.783Z,83.31
2022-12-01T09:36:06.605Z,85.40
2022-12-01T09:37:06.146Z,80.24
2022-12-01T09:38:06.304Z,80.89
2022-12-01T09:39:06.471Z,82.50
2022-12-01T09:40:07.122Z,81.53
2022-12-01T09:41:06.751Z,84.11
2022-12-01T09:42:09.020Z,79.28
2022-12-01T09:43:08.072Z,81.86
2022-12-01T09:44:07.235Z,81.21
2022-12-01T09:45:07.430Z,83.31
2022-12-01T09:46:07.624Z,82.02
2022-12-01T09:47:08.750Z,80.24
2022-12-01T09:48:07.936Z,83.79
2022-12-01T09:49:08.075Z,84.11
2022-12-01T09:50:08.270Z,80.89
2022-12-01T09:51:08.427Z,81.37
2022-12-01T09:52:08.570Z,80.24
2022-12-01T09:53:08.705Z,80.73
2022-12-01T09:54:08.861Z,81.05
2022-12-01T09:55:09.121Z,82.02
2022-12-01T09:56:12.937Z,82.34
2022-12-01T09:57:10.528Z,80.24
2022-12-01T09:58:09.650Z,82.98
2022-12-01T09:59:09.821Z,80.57
2022-12-01T10:00:10.609Z,84.59
2022-12-01T10:01:10.138Z,81.37
2022-12-01T10:02:10.412Z,80.41
2022-12-01T10:03:11.116Z,83.95
2022-12-01T10:04:10.623Z,85.56
2022-12-01T10:05:10.821Z,79.28
2022-12-01T10:06:26.531Z,82.02
2022-12-01T10:07:13.151Z,83.95
2022-12-01T10:08:11.364Z,82.82
2022-12-01T10:09:11.532Z,80.08
2022-12-01T10:10:11.667Z,81.69
2022-12-01T10:11:11.806Z,82.66
2022-12-01T10:12:11.954Z,84.27
2022-12-01T10:13:12.086Z,82.18
2022-12-01T10:14:17.984Z,89.59
2022-12-01T10:15:14.367Z,82.18
2022-12-01T10:16:13.168Z,92.49
2022-12-01T10:17:13.620Z,81.53
2022-12-01T10:18:13.614Z,93.62
2022-12-01T10:19:13.145Z,82.66
2022-12-01T10:20:13.295Z,80.73
2022-12-01T10:21:13.435Z,83.14
2022-12-01T10:22:13.600Z,81.37
2022-12-01T10:23:13.772Z,87.66
2022-12-01T10:24:13.921Z,84.76
2022-12-01T10:25:14.075Z,81.86
2022-12-01T10:26:15.121Z,83.31
2022-12-01T10:27:14.386Z,83.47
2022-12-01T10:28:14.553Z,80.73
2022-12-01T10:29:15.131Z,81.53
2022-12-01T10:30:14.928Z,83.63
2022-12-01T10:31:15.104Z,81.86
2022-12-01T10:32:15.290Z,82.98
2022-12-01T10:33:15.482Z,83.47
2022-12-01T10:34:16.617Z,80.73
2022-12-01T10:35:15.891Z,84.11
2022-12-01T10:36:16.024Z,80.41
2022-12-01T10:37:16.206Z,84.11
2022-12-01T10:38:16.453Z,83.14
2022-12-01T10:39:16.597Z,80.73
2022-12-01T10:40:16.779Z,81.86
2022-12-01T10:41:16.972Z,81.37
2022-12-01T10:42:17.125Z,82.50
2022-12-01T10:43:18.125Z,83.14
2022-12-01T10:44:17.495Z,83.14
2022-12-01T10:45:17.672Z,81.37
2022-12-01T10:46:17.907Z,82.18
2022-12-01T10:47:18.624Z,82.18
2022-12-01T10:48:19.122Z,81.05
2022-12-01T10:49:19.125Z,80.89
2022-12-01T10:50:18.511Z,80.89
2022-12-01T10:51:18.724Z,84.11
2022-12-01T10:52:19.630Z,81.37
2022-12-01T10:53:19.149Z,82.02
2022-12-01T10:54:19.313Z,83.95
2022-12-01T10:55:19.479Z,82.82
2022-12-01T10:56:20.644Z,87.17
2022-12-01T10:57:19.790Z,82.98
2022-12-01T10:58:19.984Z,81.37
2022-12-01T10:59:20.153Z,83.95
2022-12-01T11:00:50.869Z,80.24
2022-12-01T11:01:22.593Z,82.34
2022-12-01T11:02:20.874Z,81.05
2022-12-01T11:03:21.996Z,80.57
2022-12-01T11:04:22.131Z,81.21
2022-12-01T11:05:21.635Z,86.53
2022-12-01T11:06:21.423Z,81.37
2022-12-01T11:07:21.654Z,81.05
2022-12-01T11:08:21.798Z,85.40
2022-12-01T11:09:26.276Z,81.86
2022-12-01T11:10:23.218Z,78.63
2022-12-01T11:11:22.366Z,81.37
2022-12-01T11:12:22.642Z,83.63
2022-12-01T11:13:22.703Z,80.24
2022-12-01T11:14:23.630Z,81.21
2022-12-01T11:15:23.033Z,83.63
2022-12-01T11:16:23.259Z,83.47
2022-12-01T11:17:23.642Z,80.73
2022-12-01T11:18:23.560Z,82.82
2022-12-01T11:19:27.573Z,79.44
2022-12-01T11:20:25.669Z,82.18
2022-12-01T11:21:24.039Z,82.34
2022-12-01T11:22:25.225Z,82.02
2022-12-01T11:23:24.401Z,81.37
2022-12-01T11:24:25.124Z,82.82
2022-12-01T11:25:24.789Z,81.05
2022-12-01T11:26:24.955Z,81.05
2022-12-01T11:27:25.124Z,80.08
2022-12-01T11:28:25.678Z,81.69
2022-12-01T11:29:25.467Z,78.79
2022-12-01T11:30:25.610Z,81.69
2022-12-01T11:31:25.792Z,80.73
2022-12-01T11:32:25.983Z,80.24
2022-12-01T11:33:26.144Z,79.44
2022-12-01T11:34:26.254Z,80.73
2022-12-01T11:35:27.133Z,82.50
2022-12-01T11:36:26.638Z,81.05
2022-12-01T11:37:26.788Z,80.57
2022-12-01T11:38:29.576Z,82.98
2022-12-01T11:39:28.628Z,84.76
2022-12-01T11:40:27.366Z,80.24
2022-12-01T11:41:28.133Z,81.53
2022-12-01T11:42:28.629Z,82.02
2022-12-01T11:43:27.880Z,83.14
2022-12-01T11:44:50.466Z,81.21
2022-12-01T11:45:30.677Z,79.44
2022-12-01T11:46:28.395Z,80.24
2022-12-01T11:47:28.551Z,78.96
2022-12-01T11:48:29.641Z,80.08
2022-12-01T11:49:28.886Z,84.76
2022-12-01T11:50:29.078Z,81.21
2022-12-01T11:51:29.240Z,80.73
2022-12-01T11:52:29.397Z,81.69
2022-12-01T11:53:29.567Z,105.22
2022-12-01T11:54:29.774Z,80.24
2022-12-01T11:55:29.914Z,80.89
2022-12-01T11:56:30.081Z,83.95
2022-12-01T11:58:32.503Z,86.37
2022-12-01T11:59:30.629Z,82.18
2022-12-01T12:00:30.751Z,83.79
2022-12-01T12:01:30.923Z,79.44
2022-12-01T12:02:31.144Z,81.21
2022-12-01T12:03:31.330Z,81.37
2022-12-01T12:04:32.144Z,81.21
2022-12-01T12:05:31.539Z,81.53
2022-12-01T12:06:39.899Z,83.14
2022-12-01T12:07:34.669Z,80.57
2022-12-01T12:08:32.206Z,82.82
2022-12-01T12:09:33.136Z,81.37
2022-12-01T12:10:32.422Z,81.37
2022-12-01T12:11:32.607Z,82.02
2022-12-01T12:12:33.761Z,81.37
2022-12-01T12:13:33.024Z,81.53
2022-12-01T12:14:34.142Z,83.79
2022-12-01T12:15:33.370Z,81.21
2022-12-01T12:16:34.141Z,81.53
2022-12-01T12:17:33.783Z,79.92
2022-12-01T12:18:33.986Z,82.82
2022-12-01T12:20:06.317Z,82.98
2022-12-01T12:20:36.321Z,85.08
2022-12-01T12:21:34.518Z,82.34
2022-12-01T12:22:34.762Z,88.78
2022-12-01T12:23:34.996Z,84.59
2022-12-01T12:24:35.113Z,80.57
2022-12-01T12:25:35.350Z,81.37
2022-12-01T12:26:35.455Z,80.89
2022-12-01T12:27:35.580Z,81.53
2022-12-01T12:28:36.637Z,82.66
2022-12-01T12:29:35.997Z,81.05
2022-12-01T12:30:36.714Z,78.96
2022-12-01T12:31:37.139Z,85.24
2022-12-01T12:32:36.369Z,79.28
2022-12-01T12:33:36.566Z,81.53
2022-12-01T12:34:36.711Z,84.92
2022-12-01T12:35:37.642Z,81.21
2022-12-01T12:36:37.062Z,82.34
2022-12-01T12:37:37.235Z,82.18
2022-12-01T12:38:38.141Z,81.86
2022-12-01T12:39:37.489Z,81.69
2022-12-01T12:40:37.649Z,81.05
2022-12-01T12:41:37.810Z,80.73
2022-12-01T12:42:37.971Z,78.31
2022-12-01T12:43:38.678Z,81.05
2022-12-01T12:44:38.317Z,83.95
2022-12-01T12:45:38.467Z,79.28
2022-12-01T12:46:38.722Z,80.89
2022-12-01T12:47:38.800Z,81.53
2022-12-01T12:49:03.466Z,83.31
2022-12-01T12:49:41.109Z,82.98
2022-12-01T12:50:40.155Z,82.18
2022-12-01T12:51:39.533Z,80.73
2022-12-01T12:52:39.712Z,84.76
2022-12-01T12:53:39.967Z,81.53
2022-12-01T12:54:41.044Z,84.27
2022-12-01T12:55:41.181Z,79.60